sensor_id;sensor_type;location;lat;lon;timestamp;pressure;altitude;pressure_sealevel;temperature;humidity
11676;BME280;5894;42.768;23.404;2024-01-30T00:01:12;97660.88;;;0.72;100.00
11676;BME280;5894;42.768;23.404;2024-01-30T00:03:39;97670.50;;;0.79;96.70
11676;BME280;5894;42.768;23.404;2024-01-30T00:06:06;97670.03;;;0.68;98.64
11676;BME280;5894;42.768;23.404;2024-01-30T00:08:35;97674.22;;;0.69;100.00
11676;BME280;5894;42.768;23.404;2024-01-30T00:11:02;97665.50;;;0.77;100.00
11676;BME280;5894;42.768;23.404;2024-01-30T00:13:29;97670.16;;;0.82;100.00
11676;BME280;5894;42.768;23.404;2024-01-30T00:15:56;97668.81;;;0.92;100.00
11676;BME280;5894;42.768;23.404;2024-01-30T00:18:23;97674.44;;;0.96;100.00
11676;BME280;5894;42.768;23.404;2024-01-30T00:20:50;97678.44;;;0.98;100.00
11676;BME280;5894;42.768;23.404;2024-01-30T00:23:17;97670.47;;;1.00;100.00
11676;BME280;5894;42.768;23.404;2024-01-30T00:25:45;97668.50;;;1.02;100.00
11676;BME280;5894;42.768;23.404;2024-01-30T00:28:12;97671.03;;;0.95;100.00
11676;BME280;5894;42.768;23.404;2024-01-30T00:30:39;97676.16;;;1.10;99.67
11676;BME280;5894;42.768;23.404;2024-01-30T00:33:06;97675.41;;;0.95;92.03
11676;BME280;5894;42.768;23.404;2024-01-30T00:35:33;97684.47;;;0.78;94.13
11676;BME280;5894;42.768;23.404;2024-01-30T00:38:00;97681.41;;;0.67;94.49
11676;BME280;5894;42.768;23.404;2024-01-30T00:40:27;97680.16;;;0.63;95.48
11676;BME280;5894;42.768;23.404;2024-01-30T00:42:56;97678.13;;;0.59;96.19
11676;BME280;5894;42.768;23.404;2024-01-30T00:45:23;97683.50;;;0.57;96.67
11676;BME280;5894;42.768;23.404;2024-01-30T00:47:49;97685.13;;;0.58;96.80
11676;BME280;5894;42.768;23.404;2024-01-30T00:50:17;97690.06;;;0.53;98.26
11676;BME280;5894;42.768;23.404;2024-01-30T00:52:43;97676.84;;;0.48;100.00
11676;BME280;5894;42.768;23.404;2024-01-30T00:55:11;97684.63;;;0.48;100.00
11676;BME280;5894;42.768;23.404;2024-01-30T00:57:38;97678.13;;;0.59;100.00
11676;BME280;5894;42.768;23.404;2024-01-30T01:00:08;97685.00;;;0.66;98.86
11676;BME280;5894;42.768;23.404;2024-01-30T01:02:35;97682.22;;;0.68;97.13
11676;BME280;5894;42.768;23.404;2024-01-30T01:05:03;97677.81;;;0.68;95.89
11676;BME280;5894;42.768;23.404;2024-01-30T01:07:30;97679.78;;;0.66;96.06
11676;BME280;5894;42.768;23.404;2024-01-30T01:09:57;97676.16;;;0.61;96.83
11676;BME280;5894;42.768;23.404;2024-01-30T01:12:24;97678.94;;;0.59;96.91
11676;BME280;5894;42.768;23.404;2024-01-30T01:14:51;97678.50;;;0.56;98.36
11676;BME280;5894;42.768;23.404;2024-01-30T01:17:19;97680.09;;;0.57;98.45
11676;BME280;5894;42.768;23.404;2024-01-30T01:19:46;97676.88;;;0.55;99.11
11676;BME280;5894;42.768;23.404;2024-01-30T01:22:13;97681.84;;;0.50;99.67
11676;BME280;5894;42.768;23.404;2024-01-30T01:24:40;97678.69;;;0.54;99.60
11676;BME280;5894;42.768;23.404;2024-01-30T01:27:07;97672.28;;;0.50;99.82
11676;BME280;5894;42.768;23.404;2024-01-30T01:29:33;97676.22;;;0.46;99.34
11676;BME280;5894;42.768;23.404;2024-01-30T01:32:00;97672.19;;;0.44;98.59
11676;BME280;5894;42.768;23.404;2024-01-30T01:34:29;97677.50;;;0.35;99.31
11676;BME280;5894;42.768;23.404;2024-01-30T01:36:56;97674.53;;;0.17;100.00
11676;BME280;5894;42.768;23.404;2024-01-30T01:39:23;97677.25;;;0.09;100.00
11676;BME280;5894;42.768;23.404;2024-01-30T01:41:50;97670.75;;;-0.02;100.00
11676;BME280;5894;42.768;23.404;2024-01-30T01:44:17;97678.78;;;0.04;100.00
11676;BME280;5894;42.768;23.404;2024-01-30T01:46:44;97676.97;;;0.04;100.00
11676;BME280;5894;42.768;23.404;2024-01-30T01:49:11;97663.66;;;0.07;100.00
11676;BME280;5894;42.768;23.404;2024-01-30T01:51:41;97668.22;;;0.05;100.00
11676;BME280;5894;42.768;23.404;2024-01-30T01:54:10;97667.84;;;0.08;99.71
11676;BME280;5894;42.768;23.404;2024-01-30T01:56:37;97670.56;;;0.00;99.17
11676;BME280;5894;42.768;23.404;2024-01-30T01:59:06;97675.19;;;0.05;100.00
11676;BME280;5894;42.768;23.404;2024-01-30T02:01:34;97631.72;;;-0.29;100.00
11676;BME280;5894;42.768;23.404;2024-01-30T02:04:03;97682.53;;;0.01;100.00
11676;BME280;5894;42.768;23.404;2024-01-30T02:06:31;97680.31;;;-0.02;100.00
11676;BME280;5894;42.768;23.404;2024-01-30T02:09:00;97683.72;;;-0.02;100.00
11676;BME280;5894;42.768;23.404;2024-01-30T02:11:28;97685.69;;;-0.04;100.00
11676;BME280;5894;42.768;23.404;2024-01-30T02:13:55;97684.69;;;-0.03;100.00
11676;BME280;5894;42.768;23.404;2024-01-30T02:16:22;97687.19;;;0.06;100.00
11676;BME280;5894;42.768;23.404;2024-01-30T02:18:48;97692.81;;;0.09;100.00
11676;BME280;5894;42.768;23.404;2024-01-30T02:21:18;97679.84;;;0.09;100.00
11676;BME280;5894;42.768;23.404;2024-01-30T02:23:46;97628.03;;;-0.20;100.00
11676;BME280;5894;42.768;23.404;2024-01-30T02:26:14;97680.53;;;0.18;100.00
11676;BME280;5894;42.768;23.404;2024-01-30T02:28:41;97642.09;;;0.07;99.82
11676;BME280;5894;42.768;23.404;2024-01-30T02:31:08;97684.66;;;0.33;99.18
11676;BME280;5894;42.768;23.404;2024-01-30T02:33:35;97668.78;;;0.22;98.38
11676;BME280;5894;42.768;23.404;2024-01-30T02:36:02;97674.09;;;0.14;98.57
11676;BME280;5894;42.768;23.404;2024-01-30T02:38:30;97677.94;;;0.18;99.34
11676;BME280;5894;42.768;23.404;2024-01-30T02:40:57;97676.69;;;0.14;100.00
11676;BME280;5894;42.768;23.404;2024-01-30T02:43:24;97677.59;;;0.06;100.00
11676;BME280;5894;42.768;23.404;2024-01-30T02:45:51;97686.91;;;0.00;98.95
11676;BME280;5894;42.768;23.404;2024-01-30T02:48:18;97680.75;;;0.02;97.97
11676;BME280;5894;42.768;23.404;2024-01-30T02:50:45;97678.09;;;-0.05;98.55
11676;BME280;5894;42.768;23.404;2024-01-30T02:53:12;97682.00;;;-0.09;98.93
11676;BME280;5894;42.768;23.404;2024-01-30T02:55:40;97685.88;;;-0.05;99.16
11676;BME280;5894;42.768;23.404;2024-01-30T02:58:08;97683.00;;;-0.10;98.88
11676;BME280;5894;42.768;23.404;2024-01-30T03:00:35;97681.22;;;-0.10;99.92
11676;BME280;5894;42.768;23.404;2024-01-30T03:03:02;97674.44;;;-0.11;100.00
11676;BME280;5894;42.768;23.404;2024-01-30T03:05:29;97673.25;;;-0.08;100.00
11676;BME280;5894;42.768;23.404;2024-01-30T03:07:56;97674.53;;;-0.19;100.00
11676;BME280;5894;42.768;23.404;2024-01-30T03:10:23;97670.59;;;-0.15;98.91
11676;BME280;5894;42.768;23.404;2024-01-30T03:12:53;97666.75;;;-0.19;99.37
11676;BME280;5894;42.768;23.404;2024-01-30T03:15:20;97665.13;;;-0.20;98.47
11676;BME280;5894;42.768;23.404;2024-01-30T03:17:47;97669.34;;;-0.19;98.34
11676;BME280;5894;42.768;23.404;2024-01-30T03:20:14;97661.72;;;-0.20;97.88
11676;BME280;5894;42.768;23.404;2024-01-30T03:22:42;97660.69;;;-0.26;99.19
11676;BME280;5894;42.768;23.404;2024-01-30T03:25:08;97674.28;;;-0.24;97.28
11676;BME280;5894;42.768;23.404;2024-01-30T03:27:35;97666.84;;;-0.27;98.61
11676;BME280;5894;42.768;23.404;2024-01-30T03:30:05;97664.63;;;-0.30;97.77
11676;BME280;5894;42.768;23.404;2024-01-30T03:32:32;97656.22;;;-0.32;97.86
11676;BME280;5894;42.768;23.404;2024-01-30T03:34:59;97661.16;;;-0.37;98.18
11676;BME280;5894;42.768;23.404;2024-01-30T03:37:26;97662.84;;;-0.44;98.83
11676;BME280;5894;42.768;23.404;2024-01-30T03:39:53;97627.31;;;-0.65;99.44
11676;BME280;5894;42.768;23.404;2024-01-30T03:42:20;97655.72;;;-0.42;98.71
11676;BME280;5894;42.768;23.404;2024-01-30T03:44:48;97654.69;;;-0.41;98.90
11676;BME280;5894;42.768;23.404;2024-01-30T03:47:18;97649.63;;;-0.49;98.53
11676;BME280;5894;42.768;23.404;2024-01-30T03:49:46;97651.16;;;-0.55;98.89
11676;BME280;5894;42.768;23.404;2024-01-30T03:52:12;97654.19;;;-0.51;99.24
11676;BME280;5894;42.768;23.404;2024-01-30T03:54:40;97661.78;;;-0.50;98.20
11676;BME280;5894;42.768;23.404;2024-01-30T03:57:06;97650.78;;;-0.52;98.62
11676;BME280;5894;42.768;23.404;2024-01-30T03:59:33;97658.03;;;-0.47;98.48
11676;BME280;5894;42.768;23.404;2024-01-30T04:02:00;97650.88;;;-0.45;97.02
11676;BME280;5894;42.768;23.404;2024-01-30T04:04:28;97643.56;;;-0.42;97.88
11676;BME280;5894;42.768;23.404;2024-01-30T04:06:55;97642.53;;;-0.41;96.32
11676;BME280;5894;42.768;23.404;2024-01-30T04:09:22;97641.31;;;-0.45;96.50
11676;BME280;5894;42.768;23.404;2024-01-30T04:11:51;97643.63;;;-0.50;96.92
11676;BME280;5894;42.768;23.404;2024-01-30T04:14:19;97644.00;;;-0.53;96.98
11676;BME280;5894;42.768;23.404;2024-01-30T04:16:46;97651.34;;;-0.56;97.98
11676;BME280;5894;42.768;23.404;2024-01-30T04:19:13;97648.13;;;-0.58;98.71
11676;BME280;5894;42.768;23.404;2024-01-30T04:21:41;97636.50;;;-0.62;99.30
11676;BME280;5894;42.768;23.404;2024-01-30T04:24:08;97645.53;;;-0.58;99.31
11676;BME280;5894;42.768;23.404;2024-01-30T04:26:35;97648.47;;;-0.61;100.00
11676;BME280;5894;42.768;23.404;2024-01-30T04:29:03;97651.31;;;-0.71;100.00
11676;BME280;5894;42.768;23.404;2024-01-30T04:31:30;97658.03;;;-0.77;100.00
11676;BME280;5894;42.768;23.404;2024-01-30T04:33:57;97653.03;;;-0.78;100.00
11676;BME280;5894;42.768;23.404;2024-01-30T04:36:23;97653.50;;;-0.75;100.00
11676;BME280;5894;42.768;23.404;2024-01-30T04:38:52;97660.47;;;-0.75;100.00
11676;BME280;5894;42.768;23.404;2024-01-30T04:41:19;97653.50;;;-0.75;100.00
11676;BME280;5894;42.768;23.404;2024-01-30T04:43:46;97657.31;;;-0.70;100.00
11676;BME280;5894;42.768;23.404;2024-01-30T04:46:13;97661.16;;;-0.66;100.00
11676;BME280;5894;42.768;23.404;2024-01-30T04:48:39;97672.69;;;-0.69;100.00
11676;BME280;5894;42.768;23.404;2024-01-30T04:51:06;97638.56;;;-0.87;100.00
11676;BME280;5894;42.768;23.404;2024-01-30T04:53:33;97670.91;;;-0.68;100.00
11676;BME280;5894;42.768;23.404;2024-01-30T04:56:02;97673.56;;;-0.62;100.00
11676;BME280;5894;42.768;23.404;2024-01-30T04:58:29;97684.13;;;-0.63;100.00
11676;BME280;5894;42.768;23.404;2024-01-30T05:00:56;97675.47;;;-0.56;100.00
11676;BME280;5894;42.768;23.404;2024-01-30T05:03:23;97680.19;;;-0.59;100.00
11676;BME280;5894;42.768;23.404;2024-01-30T05:05:50;97684.47;;;-0.52;100.00
11676;BME280;5894;42.768;23.404;2024-01-30T05:08:17;97687.34;;;-0.47;100.00
11676;BME280;5894;42.768;23.404;2024-01-30T05:10:44;97688.88;;;-0.52;100.00
11676;BME280;5894;42.768;23.404;2024-01-30T05:13:13;97694.25;;;-0.54;100.00
11676;BME280;5894;42.768;23.404;2024-01-30T05:15:40;97692.34;;;-0.60;99.74
11676;BME280;5894;42.768;23.404;2024-01-30T05:18:07;97694.13;;;-0.60;100.00
11676;BME280;5894;42.768;23.404;2024-01-30T05:20:34;97689.56;;;-0.58;99.94
11676;BME280;5894;42.768;23.404;2024-01-30T05:23:01;97680.38;;;-0.61;100.00
11676;BME280;5894;42.768;23.404;2024-01-30T05:25:28;97656.69;;;-0.73;100.00
11676;BME280;5894;42.768;23.404;2024-01-30T05:27:55;97685.03;;;-0.56;96.41
11676;BME280;5894;42.768;23.404;2024-01-30T05:30:23;97687.97;;;-0.59;94.90
11676;BME280;5894;42.768;23.404;2024-01-30T05:32:50;97688.34;;;-0.62;94.44
11676;BME280;5894;42.768;23.404;2024-01-30T05:35:18;97698.50;;;-0.61;94.67
11676;BME280;5894;42.768;23.404;2024-01-30T05:37:47;97697.34;;;-0.58;95.32
11676;BME280;5894;42.768;23.404;2024-01-30T05:40:14;97706.38;;;-0.54;96.07
11676;BME280;5894;42.768;23.404;2024-01-30T05:42:41;97667.69;;;-0.70;97.08
11676;BME280;5894;42.768;23.404;2024-01-30T05:45:08;97686.63;;;-0.70;96.46
11676;BME280;5894;42.768;23.404;2024-01-30T05:47:37;97702.81;;;-0.53;96.12
11676;BME280;5894;42.768;23.404;2024-01-30T05:50:05;97701.84;;;-0.52;95.82
11676;BME280;5894;42.768;23.404;2024-01-30T05:52:33;97700.41;;;-0.55;95.12
11676;BME280;5894;42.768;23.404;2024-01-30T05:55:00;97695.56;;;-0.58;94.80
11676;BME280;5894;42.768;23.404;2024-01-30T05:57:28;97704.66;;;-0.62;93.05
11676;BME280;5894;42.768;23.404;2024-01-30T05:59:55;97696.63;;;-0.67;92.85
11676;BME280;5894;42.768;23.404;2024-01-30T06:02:22;97704.25;;;-0.65;94.32
11676;BME280;5894;42.768;23.404;2024-01-30T06:04:50;97703.78;;;-0.69;94.01
11676;BME280;5894;42.768;23.404;2024-01-30T06:07:17;97704.66;;;-0.62;94.87
11676;BME280;5894;42.768;23.404;2024-01-30T06:09:44;97704.59;;;-0.68;95.40
11676;BME280;5894;42.768;23.404;2024-01-30T06:12:12;97701.00;;;-0.67;96.90
11676;BME280;5894;42.768;23.404;2024-01-30T06:14:39;97708.88;;;-0.61;95.53
11676;BME280;5894;42.768;23.404;2024-01-30T06:17:07;97686.38;;;-0.75;95.63
11676;BME280;5894;42.768;23.404;2024-01-30T06:19:34;97699.69;;;-0.63;93.50
11676;BME280;5894;42.768;23.404;2024-01-30T06:22:03;97705.13;;;-0.58;94.10
11676;BME280;5894;42.768;23.404;2024-01-30T06:24:30;97691.38;;;-0.44;100.00
11676;BME280;5894;42.768;23.404;2024-01-30T06:26:57;97701.19;;;-0.25;94.33
11676;BME280;5894;42.768;23.404;2024-01-30T06:29:24;97701.63;;;-0.21;93.61
11676;BME280;5894;42.768;23.404;2024-01-30T06:31:52;97665.44;;;-0.44;92.45
11676;BME280;5894;42.768;23.404;2024-01-30T06:34:19;97701.53;;;-0.28;90.76
11676;BME280;5894;42.768;23.404;2024-01-30T06:36:46;97653.75;;;-0.55;90.32
11676;BME280;5894;42.768;23.404;2024-01-30T06:39:14;97711.81;;;-0.20;91.39
11676;BME280;5894;42.768;23.404;2024-01-30T06:41:41;97702.88;;;-0.17;88.94
11676;BME280;5894;42.768;23.404;2024-01-30T06:44:08;97703.94;;;-0.12;88.70
11676;BME280;5894;42.768;23.404;2024-01-30T06:46:35;97713.34;;;-0.11;87.50
11676;BME280;5894;42.768;23.404;2024-01-30T06:49:02;97705.19;;;-0.08;86.52
11676;BME280;5894;42.768;23.404;2024-01-30T06:51:29;97705.34;;;-0.09;83.96
11676;BME280;5894;42.768;23.404;2024-01-30T06:53:56;97728.00;;;-0.03;84.88
11676;BME280;5894;42.768;23.404;2024-01-30T06:56:25;97708.13;;;0.04;84.92
11676;BME280;5894;42.768;23.404;2024-01-30T06:58:52;97705.59;;;0.11;86.34
11676;BME280;5894;42.768;23.404;2024-01-30T07:01:19;97710.88;;;0.17;85.84
11676;BME280;5894;42.768;23.404;2024-01-30T07:03:46;97712.09;;;0.21;85.37
11676;BME280;5894;42.768;23.404;2024-01-30T07:06:13;97707.41;;;0.31;85.27
11676;BME280;5894;42.768;23.404;2024-01-30T07:08:40;97714.22;;;0.32;82.79
11676;BME280;5894;42.768;23.404;2024-01-30T07:11:07;97708.28;;;0.39;82.98
11676;BME280;5894;42.768;23.404;2024-01-30T07:13:36;97707.72;;;0.43;82.26
11676;BME280;5894;42.768;23.404;2024-01-30T07:16:04;97713.81;;;0.50;81.10
11676;BME280;5894;42.768;23.404;2024-01-30T07:18:31;97709.03;;;0.54;81.59
11676;BME280;5894;42.768;23.404;2024-01-30T07:20:58;97711.88;;;0.59;81.92
11676;BME280;5894;42.768;23.404;2024-01-30T07:23:24;97714.91;;;0.62;82.15
11676;BME280;5894;42.768;23.404;2024-01-30T07:25:51;97717.22;;;0.72;81.49
11676;BME280;5894;42.768;23.404;2024-01-30T07:28:18;97719.19;;;0.70;81.72
11676;BME280;5894;42.768;23.404;2024-01-30T07:30:47;97712.28;;;0.84;83.44
11676;BME280;5894;42.768;23.404;2024-01-30T07:33:14;97716.94;;;0.88;81.19
11676;BME280;5894;42.768;23.404;2024-01-30T07:35:41;97715.16;;;0.89;85.17
11676;BME280;5894;42.768;23.404;2024-01-30T07:38:08;97715.25;;;1.02;83.71
11676;BME280;5894;42.768;23.404;2024-01-30T07:40:35;97714.66;;;1.00;81.61
11676;BME280;5894;42.768;23.404;2024-01-30T07:43:02;97727.44;;;1.01;81.23
11676;BME280;5894;42.768;23.404;2024-01-30T07:45:29;97720.06;;;1.05;82.49
11676;BME280;5894;42.768;23.404;2024-01-30T07:48:00;97604.66;;;0.37;83.25
11676;BME280;5894;42.768;23.404;2024-01-30T07:50:27;97724.72;;;1.09;84.42
11676;BME280;5894;42.768;23.404;2024-01-30T07:52:55;97718.97;;;1.14;82.20
11676;BME280;5894;42.768;23.404;2024-01-30T07:55:22;97714.97;;;1.18;82.91
11676;BME280;5894;42.768;23.404;2024-01-30T07:57:53;97728.00;;;1.25;82.83
11676;BME280;5894;42.768;23.404;2024-01-30T08:00:20;97713.00;;;1.20;81.02
11676;BME280;5894;42.768;23.404;2024-01-30T08:02:47;97688.19;;;0.90;80.90
11676;BME280;5894;42.768;23.404;2024-01-30T08:05:15;97716.28;;;1.07;81.55
11676;BME280;5894;42.768;23.404;2024-01-30T08:07:42;97716.06;;;1.02;81.55
11676;BME280;5894;42.768;23.404;2024-01-30T08:10:11;97723.09;;;1.08;82.21
11676;BME280;5894;42.768;23.404;2024-01-30T08:12:38;97714.19;;;0.96;84.57
11676;BME280;5894;42.768;23.404;2024-01-30T08:15:06;97676.47;;;0.72;84.83
11676;BME280;5894;42.768;23.404;2024-01-30T08:17:33;97712.59;;;0.95;86.77
11676;BME280;5894;42.768;23.404;2024-01-30T08:20:00;97722.81;;;0.97;82.01
11676;BME280;5894;42.768;23.404;2024-01-30T08:22:32;97722.44;;;1.00;82.52
11676;BME280;5894;42.768;23.404;2024-01-30T08:24:59;97709.25;;;1.01;83.29
11676;BME280;5894;42.768;23.404;2024-01-30T08:27:27;97720.66;;;1.00;83.07
11676;BME280;5894;42.768;23.404;2024-01-30T08:29:54;97719.03;;;0.99;82.60
11676;BME280;5894;42.768;23.404;2024-01-30T08:32:21;97720.03;;;0.98;82.97
11676;BME280;5894;42.768;23.404;2024-01-30T08:34:49;97724.22;;;0.99;85.05
11676;BME280;5894;42.768;23.404;2024-01-30T08:37:16;97723.06;;;1.02;85.42
11676;BME280;5894;42.768;23.404;2024-01-30T08:39:44;97724.94;;;1.15;86.69
11676;BME280;5894;42.768;23.404;2024-01-30T08:42:13;97733.78;;;1.20;85.25
11676;BME280;5894;42.768;23.404;2024-01-30T08:44:40;97720.94;;;1.12;83.62
11676;BME280;5894;42.768;23.404;2024-01-30T08:47:06;97728.47;;;1.07;84.81
11676;BME280;5894;42.768;23.404;2024-01-30T08:49:33;97728.06;;;1.03;86.21
11676;BME280;5894;42.768;23.404;2024-01-30T08:52:00;97732.88;;;1.06;86.77
11676;BME280;5894;42.768;23.404;2024-01-30T08:54:27;97734.47;;;1.07;84.70
11676;BME280;5894;42.768;23.404;2024-01-30T08:56:55;97730.09;;;1.08;84.62
11676;BME280;5894;42.768;23.404;2024-01-30T08:59:23;97698.94;;;0.87;86.85
11676;BME280;5894;42.768;23.404;2024-01-30T09:01:50;97725.94;;;1.14;86.33
11676;BME280;5894;42.768;23.404;2024-01-30T09:04:20;97738.56;;;1.17;84.87
11676;BME280;5894;42.768;23.404;2024-01-30T09:06:48;97743.38;;;1.20;84.66
11676;BME280;5894;42.768;23.404;2024-01-30T09:09:15;97727.97;;;1.18;83.90
11676;BME280;5894;42.768;23.404;2024-01-30T09:11:43;97743.84;;;1.30;85.18
11676;BME280;5894;42.768;23.404;2024-01-30T09:14:11;97736.06;;;1.30;82.31
11676;BME280;5894;42.768;23.404;2024-01-30T09:16:38;97732.44;;;1.24;81.83
11676;BME280;5894;42.768;23.404;2024-01-30T09:19:05;97736.69;;;1.32;83.59
11676;BME280;5894;42.768;23.404;2024-01-30T09:21:32;97735.88;;;1.31;82.58
11676;BME280;5894;42.768;23.404;2024-01-30T09:24:02;97743.06;;;1.29;82.04
11676;BME280;5894;42.768;23.404;2024-01-30T09:26:29;97724.66;;;1.31;82.45
11676;BME280;5894;42.768;23.404;2024-01-30T09:28:56;97729.91;;;1.37;82.11
11676;BME280;5894;42.768;23.404;2024-01-30T09:31:25;97722.53;;;1.41;81.82
11676;BME280;5894;42.768;23.404;2024-01-30T09:33:51;97725.13;;;1.41;81.53
11676;BME280;5894;42.768;23.404;2024-01-30T09:36:19;97718.88;;;1.35;79.12
11676;BME280;5894;42.768;23.404;2024-01-30T09:38:47;97723.09;;;1.36;80.12
11676;BME280;5894;42.768;23.404;2024-01-30T09:41:14;97720.94;;;1.40;79.50
11676;BME280;5894;42.768;23.404;2024-01-30T09:43:46;97718.13;;;1.41;78.18
11676;BME280;5894;42.768;23.404;2024-01-30T09:46:16;97721.69;;;1.34;78.63
11676;BME280;5894;42.768;23.404;2024-01-30T09:48:46;97721.72;;;1.40;79.11
11676;BME280;5894;42.768;23.404;2024-01-30T09:51:14;97715.72;;;1.40;77.67
11676;BME280;5894;42.768;23.404;2024-01-30T09:53:42;97713.16;;;1.46;76.10
11676;BME280;5894;42.768;23.404;2024-01-30T09:56:09;97703.81;;;1.52;77.30
11676;BME280;5894;42.768;23.404;2024-01-30T09:58:36;97705.44;;;1.60;77.05
11676;BME280;5894;42.768;23.404;2024-01-30T10:01:05;97715.28;;;1.64;76.27
11676;BME280;5894;42.768;23.404;2024-01-30T10:03:32;97706.25;;;1.67;76.50
11676;BME280;5894;42.768;23.404;2024-01-30T10:06:01;97701.31;;;1.72;77.46
11676;BME280;5894;42.768;23.404;2024-01-30T10:08:28;97712.72;;;1.77;74.82
11676;BME280;5894;42.768;23.404;2024-01-30T10:10:55;97701.50;;;1.77;74.15
11676;BME280;5894;42.768;23.404;2024-01-30T10:13:22;97703.13;;;1.78;76.42
11676;BME280;5894;42.768;23.404;2024-01-30T10:15:49;97708.56;;;1.83;76.34
11676;BME280;5894;42.768;23.404;2024-01-30T10:18:17;97701.97;;;1.87;76.20
11676;BME280;5894;42.768;23.404;2024-01-30T10:20:45;97707.97;;;1.88;77.81
11676;BME280;5894;42.768;23.404;2024-01-30T10:23:14;97710.97;;;1.84;76.57
11676;BME280;5894;42.768;23.404;2024-01-30T10:25:41;97706.97;;;1.82;77.10
11676;BME280;5894;42.768;23.404;2024-01-30T10:28:09;97708.13;;;1.79;76.04
11676;BME280;5894;42.768;23.404;2024-01-30T10:30:36;97702.53;;;1.76;78.25
11676;BME280;5894;42.768;23.404;2024-01-30T10:33:03;97705.94;;;1.76;78.82
11676;BME280;5894;42.768;23.404;2024-01-30T10:35:30;97699.94;;;1.76;80.10
11676;BME280;5894;42.768;23.404;2024-01-30T10:37:59;97699.16;;;1.89;80.79
11676;BME280;5894;42.768;23.404;2024-01-30T10:40:28;97649.63;;;1.56;79.17
11676;BME280;5894;42.768;23.404;2024-01-30T10:42:56;97692.94;;;1.83;77.33
11676;BME280;5894;42.768;23.404;2024-01-30T10:45:23;97692.94;;;1.83;77.52
11676;BME280;5894;42.768;23.404;2024-01-30T10:47:55;97687.16;;;1.88;78.69
11676;BME280;5894;42.768;23.404;2024-01-30T10:50:24;97686.34;;;1.87;79.13
11676;BME280;5894;42.768;23.404;2024-01-30T10:52:52;97670.91;;;1.79;79.31
11676;BME280;5894;42.768;23.404;2024-01-30T10:55:21;97676.13;;;1.79;77.82
11676;BME280;5894;42.768;23.404;2024-01-30T10:57:50;97659.50;;;1.80;80.22
11676;BME280;5894;42.768;23.404;2024-01-30T11:00:17;97669.59;;;1.96;79.08
11676;BME280;5894;42.768;23.404;2024-01-30T11:02:48;97661.22;;;2.07;77.89
11676;BME280;5894;42.768;23.404;2024-01-30T11:05:23;97672.63;;;2.06;78.29
11676;BME280;5894;42.768;23.404;2024-01-30T11:07:50;97660.38;;;2.00;75.37
11676;BME280;5894;42.768;23.404;2024-01-30T11:10:17;97668.81;;;2.02;77.33
11676;BME280;5894;42.768;23.404;2024-01-30T11:12:46;97667.44;;;2.06;78.58
11676;BME280;5894;42.768;23.404;2024-01-30T11:15:15;97643.94;;;1.93;77.92
11676;BME280;5894;42.768;23.404;2024-01-30T11:17:44;97659.81;;;2.11;79.59
11676;BME280;5894;42.768;23.404;2024-01-30T11:20:12;97652.19;;;2.03;77.88
11676;BME280;5894;42.768;23.404;2024-01-30T11:22:44;97657.81;;;2.13;79.03
11676;BME280;5894;42.768;23.404;2024-01-30T11:25:13;97645.00;;;2.12;77.23
11676;BME280;5894;42.768;23.404;2024-01-30T11:27:41;97651.59;;;2.08;77.40
11676;BME280;5894;42.768;23.404;2024-01-30T11:30:08;97645.22;;;2.17;78.90
11676;BME280;5894;42.768;23.404;2024-01-30T11:32:37;97651.44;;;2.16;77.73
11676;BME280;5894;42.768;23.404;2024-01-30T11:35:05;97660.44;;;2.13;77.43
11676;BME280;5894;42.768;23.404;2024-01-30T11:37:36;97658.19;;;2.04;78.83
11676;BME280;5894;42.768;23.404;2024-01-30T11:40:05;97654.19;;;2.01;77.57
11676;BME280;5894;42.768;23.404;2024-01-30T11:42:32;97644.75;;;2.00;79.08
11676;BME280;5894;42.768;23.404;2024-01-30T11:45:01;97639.38;;;2.02;77.67
11676;BME280;5894;42.768;23.404;2024-01-30T11:47:29;97640.19;;;2.09;81.45
11676;BME280;5894;42.768;23.404;2024-01-30T11:49:57;97628.97;;;2.02;78.31
11676;BME280;5894;42.768;23.404;2024-01-30T11:52:24;97648.00;;;2.09;76.58
11676;BME280;5894;42.768;23.404;2024-01-30T11:54:51;97644.59;;;2.08;77.22
11676;BME280;5894;42.768;23.404;2024-01-30T11:57:18;97645.00;;;2.12;77.32
11676;BME280;5894;42.768;23.404;2024-01-30T11:59:45;97640.00;;;2.10;76.18
11676;BME280;5894;42.768;23.404;2024-01-30T12:02:15;97633.59;;;2.13;76.39
11676;BME280;5894;42.768;23.404;2024-01-30T12:04:44;97630.59;;;2.16;77.41
11676;BME280;5894;42.768;23.404;2024-01-30T12:07:12;97625.22;;;2.24;75.60
11676;BME280;5894;42.768;23.404;2024-01-30T12:09:41;97612.38;;;2.22;75.86
11676;BME280;5894;42.768;23.404;2024-01-30T12:12:08;97606.38;;;2.29;76.95
11676;BME280;5894;42.768;23.404;2024-01-30T12:14:38;97602.56;;;2.31;75.47
11676;BME280;5894;42.768;23.404;2024-01-30T12:17:06;97576.31;;;2.19;74.73
11676;BME280;5894;42.768;23.404;2024-01-30T12:19:34;97600.56;;;2.40;76.42
11676;BME280;5894;42.768;23.404;2024-01-30T12:22:01;97594.56;;;2.39;75.24
11676;BME280;5894;42.768;23.404;2024-01-30T12:24:29;97596.59;;;2.44;78.25
11676;BME280;5894;42.768;23.404;2024-01-30T12:26:57;97594.38;;;2.41;78.63
11676;BME280;5894;42.768;23.404;2024-01-30T12:29:25;97591.56;;;2.36;77.66
11676;BME280;5894;42.768;23.404;2024-01-30T12:31:53;97586.19;;;2.37;77.39
11676;BME280;5894;42.768;23.404;2024-01-30T12:34:20;97587.38;;;2.35;77.61
11676;BME280;5894;42.768;23.404;2024-01-30T12:36:47;97590.38;;;2.38;78.41
11676;BME280;5894;42.768;23.404;2024-01-30T12:39:15;97586.56;;;2.28;76.04
11676;BME280;5894;42.768;23.404;2024-01-30T12:41:43;97547.47;;;2.01;78.04
11676;BME280;5894;42.768;23.404;2024-01-30T12:44:10;97583.34;;;2.19;77.21
11676;BME280;5894;42.768;23.404;2024-01-30T12:46:37;97576.72;;;2.10;78.09
11676;BME280;5894;42.768;23.404;2024-01-30T12:49:04;97587.53;;;2.20;79.27
11676;BME280;5894;42.768;23.404;2024-01-30T12:51:34;97580.75;;;2.26;79.91
11676;BME280;5894;42.768;23.404;2024-01-30T12:54:05;97573.34;;;2.22;77.84
11676;BME280;5894;42.768;23.404;2024-01-30T12:56:32;97577.34;;;2.32;79.62
11676;BME280;5894;42.768;23.404;2024-01-30T12:59:00;97574.56;;;2.27;77.21
11676;BME280;5894;42.768;23.404;2024-01-30T13:01:27;97571.94;;;2.33;78.68
11676;BME280;5894;42.768;23.404;2024-01-30T13:03:54;97567.16;;;2.37;79.22
11676;BME280;5894;42.768;23.404;2024-01-30T13:06:23;97564.13;;;2.46;80.17